Time;durP1;ratioP1;P1;durP2;ratioP2;P2;SDS_P1;SDS_P2;PMS_P1;PMS_P2;Temp;Humidity;BMP_temperature;BMP_pressure;BME280_temperature;BME280_humidity;BME280_pressure;Samples;Min_cycle;Max_cycle;Signal;HPM_P1;HPM_P2
2022/11/12 00:01:36;;;;;;;61.77;15.83;;;;;;;7.20;100.00;100897.91;5033658;28;20202;-80
2022/11/12 00:04:08;;;;;;;29.00;12.33;;;;;;;7.23;100.00;100889.94;5030275;28;20189;-80
2022/11/12 00:06:38;;;;;;;39.17;14.23;;;;;;;7.18;100.00;100898.81;5026291;28;20252;-80
2022/11/12 00:09:07;;;;;;;39.80;13.93;;;;;;;7.19;100.00;100891.78;5030246;28;20198;-80
2022/11/12 00:11:35;;;;;;;42.13;13.07;;;;;;;7.22;100.00;100894.34;5028074;28;20194;-80
2022/11/12 00:14:04;;;;;;;64.97;13.53;;;;;;;7.24;100.00;100892.56;5027870;28;20204;-80
2022/11/12 00:16:35;;;;;;;86.10;16.10;;;;;;;7.15;100.00;100896.25;5035186;28;20247;-80
2022/11/12 00:19:05;;;;;;;69.07;13.20;;;;;;;7.11;100.00;100896.34;5049927;28;20193;-80
2022/11/12 00:21:34;;;;;;;39.93;11.93;;;;;;;7.14;100.00;100899.78;5050473;28;20189;-80
2022/11/12 00:24:05;;;;;;;40.23;11.73;;;;;;;7.16;100.00;100890.09;5053159;28;20193;-80
2022/11/12 00:26:33;;;;;;;86.27;13.53;;;;;;;7.20;100.00;100890.88;5052938;28;20189;-79
2022/11/12 00:29:03;;;;;;;60.97;12.40;;;;;;;7.17;100.00;100894.44;5050248;28;20240;-80
2022/11/12 00:31:33;;;;;;;48.17;13.70;;;;;;;7.26;100.00;100884.59;5019607;28;20194;-80
2022/11/12 00:34:02;;;;;;;45.97;13.07;;;;;;;7.25;100.00;100894.28;5048935;28;20228;-80
2022/11/12 00:36:31;;;;;;;48.67;12.57;;;;;;;7.23;100.00;100897.84;5047941;28;20192;-80
2022/11/12 00:39:01;;;;;;;24.60;10.03;;;;;;;7.32;100.00;100892.34;5051906;28;20198;-80
2022/11/12 00:41:32;;;;;;;154.37;16.60;;;;;;;7.24;100.00;100883.75;5053406;28;20254;-80
2022/11/12 00:44:00;;;;;;;72.57;13.60;;;;;;;7.20;100.00;100890.88;5049488;28;20247;-80
2022/11/12 00:46:29;;;;;;;38.67;12.07;;;;;;;7.20;100.00;100893.50;5051792;28;20270;-80
2022/11/12 00:48:58;;;;;;;78.53;13.47;;;;;;;7.24;100.00;100894.28;5051146;28;20193;-80
2022/11/12 00:51:26;;;;;;;53.43;12.03;;;;;;;7.31;100.00;100885.34;5053125;28;20197;-80
2022/11/12 00:53:57;;;;;;;102.10;14.90;;;;;;;7.26;100.00;100892.50;5051037;28;20286;-80
2022/11/12 00:56:27;;;;;;;32.57;10.80;;;;;;;7.30;100.00;100884.50;5051961;28;20189;-80
2022/11/12 00:59:04;;;;;;;19.60;10.17;;;;;;;7.35;100.00;100893.19;5051247;28;20201;-80
2022/11/12 01:01:32;;;;;;;49.67;11.70;;;;;;;7.13;100.00;100887.50;5051703;28;20201;-80
2022/11/12 01:04:01;;;;;;;19.60;10.10;;;;;;;7.22;100.00;100880.28;5031795;28;20636;-80
2022/11/12 01:06:30;;;;;;;41.27;11.37;;;;;;;7.15;100.00;100880.44;5048296;28;20205;-80
2022/11/12 01:09:00;;;;;;;36.73;11.27;;;;;;;7.29;100.00;100887.16;5019200;28;20197;-80
2022/11/12 01:11:31;;;;;;;69.70;12.83;;;;;;;7.15;100.00;100875.19;5055043;28;20258;-80
2022/11/12 01:14:02;;;;;;;131.93;16.07;;;;;;;7.24;100.00;100882.00;5051182;28;20459;-79
2022/11/12 01:16:34;;;;;;;54.63;13.27;;;;;;;7.23;100.00;100889.94;5052905;28;20201;-80
2022/11/12 01:19:05;;;;;;;48.63;12.97;;;;;;;7.20;100.00;100884.75;5053900;28;20189;-80
2022/11/12 01:21:37;;;;;;;36.00;11.23;;;;;;;7.36;100.00;100881.72;5056764;28;20197;-80
2022/11/12 01:24:08;;;;;;;105.47;14.23;;;;;;;7.21;100.00;100884.69;5054495;28;20216;-81
2022/11/12 01:26:37;;;;;;;126.57;14.23;;;;;;;7.07;100.00;100881.50;5054202;28;20255;-80
2022/11/12 01:29:11;;;;;;;65.00;10.40;;;;;;;7.08;100.00;100880.59;5050348;28;20648;-80
2022/11/12 01:31:42;;;;;;;42.17;10.90;;;;;;;7.13;100.00;100871.69;5053440;28;20208;-81
2022/11/12 01:34:11;;;;;;;23.43;9.47;;;;;;;7.23;100.00;100876.75;5047690;28;20221;-80
2022/11/12 01:36:41;;;;;;;31.37;10.63;;;;;;;7.28;100.00;100872.25;5050219;28;20239;-80
2022/11/12 01:39:12;;;;;;;20.30;9.63;;;;;;;7.36;100.00;100871.19;5032579;28;20278;-80
2022/11/12 01:41:45;;;;;;;17.00;9.50;;;;;;;7.39;100.00;100864.97;5051674;28;20786;-80
2022/11/12 01:44:17;;;;;;;49.53;10.97;;;;;;;7.39;100.00;100870.22;5013688;28;20189;-80
2022/11/12 01:47:05;;;;;;;67.10;11.37;;;;;;;7.33;100.00;100871.22;5052977;28;20250;-80
2022/11/12 01:49:39;;;;;;;60.80;11.53;;;;;;;7.23;100.00;100869.72;5052886;28;20247;-80
2022/11/12 01:52:17;;;;;;;21.77;8.93;;;;;;;7.27;100.00;100879.28;5051970;28;20236;-80
2022/11/12 01:54:52;;;;;;;19.67;9.40;;;;;;;7.27;100.00;100865.25;5054271;28;20663;-80
2022/11/12 01:57:27;;;;;;;42.20;11.50;;;;;;;7.30;100.00;100867.81;5058986;28;20201;-80
2022/11/12 02:00:06;;;;;;;40.90;10.43;;;;;;;7.27;100.00;100873.16;5055410;28;20204;-80
2022/11/12 02:02:35;;;;;;;19.73;8.87;;;;;;;7.39;100.00;100873.72;4994416;28;20229;-80
2022/11/12 02:05:08;;;;;;;15.53;8.80;;;;;;;7.34;100.00;100872.13;4995549;28;20195;-80
2022/11/12 02:07:39;;;;;;;30.23;9.33;;;;;;;7.36;100.00;100872.94;4994480;28;20199;-80
2022/11/12 02:10:11;;;;;;;21.77;9.80;;;;;;;7.35;100.00;100864.19;4995365;28;20198;-80
2022/11/12 02:15:28;;;;;;;19.17;10.13;;;;;;;7.32;100.00;100866.88;4993986;28;20241;-80
2022/11/12 02:17:56;;;;;;;41.47;10.67;;;;;;;7.24;100.00;100862.66;4995190;28;20195;-80
2022/11/12 02:20:25;;;;;;;19.27;9.90;;;;;;;7.32;100.00;100863.38;4992700;28;20195;-80
2022/11/12 02:22:55;;;;;;;36.63;10.87;;;;;;;7.38;100.00;100863.22;4988061;28;20253;-80
2022/11/12 02:25:27;;;;;;;32.20;10.63;;;;;;;7.28;100.00;100856.44;4995786;28;20253;-80
2022/11/12 02:27:57;;;;;;;23.90;10.40;;;;;;;7.38;100.00;100864.09;5043360;28;20278;-80
2022/11/12 02:30:33;;;;;;;22.27;8.97;;;;;;;7.38;100.00;100857.97;5045700;28;20201;-80
2022/11/12 02:33:02;;;;;;;24.23;10.10;;;;;;;7.23;100.00;100856.53;5056349;28;20628;-80
2022/11/12 02:35:32;;;;;;;23.07;10.23;;;;;;;7.26;100.00;100859.13;5054392;28;20200;-80
2022/11/12 02:38:02;;;;;;;49.50;12.33;;;;;;;7.21;100.00;100858.34;5053924;28;20189;-80
2022/11/12 02:40:31;;;;;;;28.37;10.73;;;;;;;7.26;100.00;100858.25;5053434;28;20232;-80
2022/11/12 02:42:59;;;;;;;37.63;11.60;;;;;;;7.23;100.00;100851.25;5053887;28;20197;-80
2022/11/12 02:45:33;;;;;;;42.37;11.60;;;;;;;7.10;100.00;100847.19;5055096;28;20201;-80
2022/11/12 02:48:02;;;;;;;39.50;10.60;;;;;;;7.05;100.00;100846.44;5054567;28;20278;-80
2022/11/12 02:50:31;;;;;;;28.57;10.57;;;;;;;7.12;100.00;100848.88;5049065;28;20201;-80
2022/11/12 02:52:59;;;;;;;25.03;10.53;;;;;;;7.21;100.00;100860.13;5053703;28;20217;-80
2022/11/12 02:55:29;;;;;;;26.60;10.77;;;;;;;7.23;100.00;100861.81;5058039;28;20211;-80
2022/11/12 02:58:05;;;;;;;30.77;10.97;;;;;;;7.29;100.00;100863.44;5058943;28;20193;-80
2022/11/12 03:00:33;;;;;;;21.60;11.30;;;;;;;7.30;100.00;100863.41;5059946;28;20201;-81
2022/11/12 03:03:02;;;;;;;62.07;13.07;;;;;;;7.21;100.00;100863.63;5040337;28;20193;-80
2022/11/12 03:05:33;;;;;;;31.13;10.97;;;;;;;7.32;100.00;100868.63;5050297;28;20201;-81
2022/11/12 03:08:06;;;;;;;43.13;12.30;;;;;;;7.25;100.00;100862.66;5052066;28;20197;-80
2022/11/12 03:10:37;;;;;;;57.10;12.53;;;;;;;7.41;100.00;100868.41;5055716;28;20246;-80
2022/11/12 03:13:06;;;;;;;78.20;13.97;;;;;;;7.30;100.00;100870.44;5055432;28;20193;-80
2022/11/12 03:15:38;;;;;;;185.70;18.67;;;;;;;7.11;100.00;100864.72;5054248;28;20200;-80
2022/11/12 03:18:07;;;;;;;44.13;11.63;;;;;;;7.28;100.00;100861.72;5051204;28;20197;-79
2022/11/12 03:20:38;;;;;;;66.13;14.03;;;;;;;7.15;100.00;100869.03;5053504;28;20197;-79
2022/11/12 03:23:09;;;;;;;73.40;14.83;;;;;;;7.21;100.00;100871.53;5053302;28;20652;-80
2022/11/12 03:25:39;;;;;;;54.80;11.13;;;;;;;7.15;100.00;100872.53;5057290;28;20327;-80
2022/11/12 03:28:11;;;;;;;95.00;14.43;;;;;;;6.86;100.00;100865.28;5036394;28;20692;-80
2022/11/12 03:30:41;;;;;;;58.90;11.77;;;;;;;6.95;100.00;100861.59;5031955;28;20228;-80
2022/11/12 03:33:14;;;;;;;34.43;10.13;;;;;;;7.08;100.00;100857.75;5030062;28;20233;-80
2022/11/12 03:35:42;;;;;;;22.47;10.67;;;;;;;7.10;100.00;100852.44;5029493;28;20272;-80
2022/11/12 03:38:11;;;;;;;25.80;10.23;;;;;;;7.07;100.00;100844.63;5030690;28;20196;-80
2022/11/12 03:40:40;;;;;;;49.03;11.70;;;;;;;7.13;100.00;100845.34;5028725;28;20202;-80
2022/11/12 03:43:09;;;;;;;54.57;12.20;;;;;;;6.99;100.00;100843.94;5029222;28;20205;-80
2022/11/12 03:45:37;;;;;;;62.47;11.83;;;;;;;7.03;100.00;100843.81;5036335;28;20235;-79
2022/11/12 03:48:06;;;;;;;27.43;10.67;;;;;;;7.09;100.00;100845.44;5054542;28;20189;-80
2022/11/12 03:50:34;;;;;;;18.40;10.53;;;;;;;7.10;100.00;100847.19;5054841;28;20193;-80
2022/11/12 03:53:03;;;;;;;12.73;9.50;;;;;;;7.21;100.00;100845.16;4970593;28;20375;-80
2022/11/12 03:55:32;;;;;;;17.17;9.67;;;;;;;7.24;100.00;100841.59;4972086;28;20280;-80
2022/11/12 03:58:02;;;;;;;15.47;10.17;;;;;;;7.25;100.00;100838.94;4971493;28;20266;-80
2022/11/12 04:00:31;;;;;;;40.33;12.17;;;;;;;7.06;100.00;100830.59;4940957;28;20218;-80
2022/11/12 04:02:59;;;;;;;22.83;10.77;;;;;;;7.06;100.00;100838.50;4971437;28;20196;-79
2022/11/12 04:11:04;;;;;;;22.90;10.97;;;;;;;7.30;100.00;100842.31;5005385;28;20189;-80
2022/11/12 04:13:33;;;;;;;35.87;10.70;;;;;;;7.26;100.00;100845.06;5054495;28;20189;-79
2022/11/12 04:21:53;;;;;;;20.00;8.60;;;;;;;7.14;100.00;100836.56;5056560;28;20228;-80
2022/11/12 04:27:15;;;;;;;15.67;8.83;;;;;;;7.10;100.00;100834.00;5054034;28;20228;-80
2022/11/12 04:32:36;;;;;;;41.27;9.77;;;;;;;7.09;100.00;100842.81;5056214;28;20201;-80
2022/11/12 04:35:05;;;;;;;39.27;9.73;;;;;;;7.10;100.00;100849.81;5054013;28;20213;-80
2022/11/12 04:37:44;;;;;;;16.50;9.33;;;;;;;7.20;100.00;100843.44;5051965;28;20788;-80
2022/11/12 04:45:51;;;;;;;39.43;8.90;;;;;;;6.89;100.00;100841.50;5052599;28;20228;-80
2022/11/12 04:48:22;;;;;;;37.03;9.37;;;;;;;6.76;100.00;100844.44;5031622;28;20261;-80
2022/11/12 04:50:56;;;;;;;23.93;8.27;;;;;;;6.73;100.00;100839.22;5030233;28;20247;-80
2022/11/12 04:53:25;;;;;;;31.60;9.60;;;;;;;6.78;100.00;100837.38;5030988;28;20232;-80
2022/11/12 04:55:56;;;;;;;32.97;8.70;;;;;;;6.87;100.00;100842.44;5029295;28;20224;-80
2022/11/12 04:58:26;;;;;;;12.43;6.93;;;;;;;6.85;100.00;100842.47;5027702;28;20206;-80
2022/11/12 05:00:57;;;;;;;28.00;8.47;;;;;;;6.77;100.00;100840.91;5027762;28;20248;-80
2022/11/12 05:03:25;;;;;;;22.90;8.60;;;;;;;6.82;100.00;100836.38;5025806;28;20252;-80
2022/11/12 05:06:01;;;;;;;36.73;8.57;;;;;;;6.81;100.00;100843.41;5031829;28;20194;-80
2022/11/12 05:08:31;;;;;;;16.97;7.17;;;;;;;6.84;100.00;100839.84;5029002;28;20190;-80
2022/11/12 05:10:59;;;;;;;38.83;8.77;;;;;;;6.77;100.00;100835.63;5011756;28;20299;-80
2022/11/12 05:13:29;;;;;;;21.10;7.53;;;;;;;6.75;100.00;100834.78;4991352;28;20244;-80
2022/11/12 05:15:58;;;;;;;29.87;8.27;;;;;;;6.83;100.00;100835.47;5024917;28;20275;-80
2022/11/12 05:18:28;;;;;;;38.63;8.13;;;;;;;6.64;100.00;100836.78;5024107;28;20185;-80
2022/11/12 05:20:56;;;;;;;26.43;7.37;;;;;;;6.77;100.00;100831.22;5026953;28;20186;-80
2022/11/12 05:23:25;;;;;;;10.50;7.03;;;;;;;6.87;100.00;100834.53;5028195;28;20720;-80
2022/11/12 05:25:55;;;;;;;60.50;8.97;;;;;;;6.76;100.00;100824.25;5028794;28;20337;-80
2022/11/12 05:28:23;;;;;;;45.97;8.70;;;;;;;6.78;100.00;100824.19;5034519;28;20251;-80
2022/11/12 05:30:52;;;;;;;59.03;10.00;;;;;;;6.73;100.00;100820.78;4980259;28;20205;-80
2022/11/12 05:33:22;;;;;;;57.83;10.83;;;;;;;6.74;100.00;100819.88;5023767;28;20208;-80
2022/11/12 05:35:51;;;;;;;53.67;9.33;;;;;;;6.67;100.00;100818.28;5031178;28;20237;-80
2022/11/12 05:38:19;;;;;;;35.33;8.07;;;;;;;6.68;100.00;100817.41;5028521;28;20190;-80
2022/11/12 05:40:48;;;;;;;24.27;7.77;;;;;;;6.69;100.00;100816.50;5030899;28;20233;-80
2022/11/12 05:43:17;;;;;;;76.77;10.30;;;;;;;6.52;100.00;100814.22;5026523;28;20201;-79
2022/11/12 05:45:45;;;;;;;31.90;7.73;;;;;;;6.55;100.00;100814.13;5029687;28;20202;-80
2022/11/12 05:48:14;;;;;;;30.50;8.10;;;;;;;6.60;100.00;100809.66;5026797;28;20229;-80
2022/11/12 05:50:51;;;;;;;25.83;7.57;;;;;;;6.60;100.00;100812.28;5030794;28;20189;-80
2022/11/12 05:53:41;;;;;;;26.93;8.00;;;;;;;6.70;100.00;100816.47;5030594;28;20230;-80
2022/11/12 05:56:10;;;;;;;27.27;8.27;;;;;;;6.69;100.00;100824.38;5044072;28;20309;-80
2022/11/12 05:58:39;;;;;;;30.87;7.43;;;;;;;6.58;100.00;100829.88;5048115;28;20200;-80
2022/11/12 06:01:08;;;;;;;34.50;6.93;;;;;;;6.58;100.00;100830.75;5054159;28;20656;-80
2022/11/12 06:03:38;;;;;;;52.43;8.53;;;;;;;6.43;100.00;100833.69;5052896;28;20258;-80
2022/11/12 06:06:11;;;;;;;29.80;7.77;;;;;;;6.38;100.00;100826.78;5049776;28;20660;-80
2022/11/12 06:08:40;;;;;;;22.00;7.10;;;;;;;6.44;100.00;100831.91;5052607;28;20197;-80
2022/11/12 06:11:08;;;;;;;51.70;8.43;;;;;;;6.20;100.00;100828.88;5006428;28;20257;-79
2022/11/12 06:13:37;;;;;;;65.07;9.43;;;;;;;6.13;100.00;100836.91;4976523;28;20329;-80
2022/11/12 06:16:06;;;;;;;32.20;7.03;;;;;;;6.16;100.00;100834.22;5008034;28;20225;-80
2022/11/12 06:18:34;;;;;;;52.83;8.43;;;;;;;6.10;100.00;100842.25;5011134;28;20211;-80
2022/11/12 06:21:21;;;;;;;32.13;7.03;;;;;;;6.15;100.00;100843.88;4960942;28;20190;-80
2022/11/12 06:23:56;;;;;;;52.40;9.07;;;;;;;6.13;100.00;100843.03;5010891;28;20245;-79
2022/11/12 06:26:27;;;;;;;54.93;7.83;;;;;;;6.11;100.00;100847.47;5008481;28;20194;-80
2022/11/12 06:28:55;;;;;;;34.90;7.07;;;;;;;6.14;100.00;100843.91;4978656;28;20189;-80
2022/11/12 06:31:24;;;;;;;36.00;7.37;;;;;;;6.12;100.00;100838.69;5054831;28;20247;-80
2022/11/12 06:33:52;;;;;;;38.73;7.23;;;;;;;6.11;100.00;100846.59;5009743;28;20248;-80
2022/11/12 06:36:21;;;;;;;43.10;8.17;;;;;;;6.09;100.00;100851.03;4961337;28;20218;-80
2022/11/12 06:38:53;;;;;;;25.43;7.20;;;;;;;6.05;100.00;100858.09;5014455;28;20241;-79
2022/11/12 06:41:21;;;;;;;50.13;8.07;;;;;;;6.04;100.00;100851.09;5012687;28;20203;-79
2022/11/12 06:43:51;;;;;;;58.30;8.43;;;;;;;6.09;100.00;100859.78;5006828;28;20222;-80
2022/11/12 06:46:19;;;;;;;12.40;5.53;;;;;;;6.17;100.00;100862.25;5005620;28;20198;-80
2022/11/12 06:48:47;;;;;;;44.27;7.40;;;;;;;6.12;100.00;100866.75;5009281;28;20202;-79
2022/11/12 06:51:18;;;;;;;33.13;7.73;;;;;;;6.12;100.00;100869.38;5016743;28;20211;-80
2022/11/12 06:53:50;;;;;;;21.57;7.23;;;;;;;6.22;100.00;100871.81;5054780;28;20232;-79
2022/11/12 06:56:20;;;;;;;17.23;6.67;;;;;;;6.14;100.00;100878.09;5058152;28;20213;-80
2022/11/12 06:58:50;;;;;;;41.73;8.73;;;;;;;6.11;100.00;100876.41;5049167;28;20185;-80
2022/11/12 07:01:22;;;;;;;31.13;7.90;;;;;;;6.20;100.00;100864.84;5057044;28;20239;-79
2022/11/12 07:03:52;;;;;;;38.10;7.80;;;;;;;6.11;100.00;100870.28;5058889;28;20201;-79
2022/11/12 07:06:21;;;;;;;16.27;7.10;;;;;;;6.14;100.00;100868.44;5055789;28;20194;-80
2022/11/12 07:08:50;;;;;;;20.47;7.20;;;;;;;6.24;100.00;100875.28;5057351;28;20205;-79
2022/11/12 07:11:21;;;;;;;64.30;9.53;;;;;;;6.22;100.00;100873.56;5063455;28;20212;-80
2022/11/12 07:13:50;;;;;;;40.10;8.70;;;;;;;6.20;100.00;100875.38;5052590;28;20197;-80
2022/11/12 07:16:18;;;;;;;31.23;7.37;;;;;;;6.37;100.00;100868.03;5052567;28;20298;-80
2022/11/12 07:18:48;;;;;;;82.27;11.00;;;;;;;6.37;100.00;100872.41;5053342;28;20185;-80
2022/11/12 07:21:18;;;;;;;15.17;7.47;;;;;;;6.37;100.00;100865.41;5051057;28;20754;-80
2022/11/12 07:23:48;;;;;;;66.23;10.03;;;;;;;6.37;100.00;100878.56;5055254;28;20367;-80
2022/11/12 07:26:19;;;;;;;26.30;7.93;;;;;;;6.37;100.00;100875.03;5054332;28;20311;-79
2022/11/12 07:28:51;;;;;;;22.53;8.70;;;;;;;6.35;100.00;100869.81;5053995;28;20223;-80
2022/11/12 07:31:20;;;;;;;42.47;9.33;;;;;;;6.31;100.00;100876.91;5055097;28;20200;-79
2022/11/12 07:33:50;;;;;;;17.87;8.00;;;;;;;6.43;100.00;100886.31;5053906;28;20193;-79
2022/11/12 07:36:20;;;;;;;20.97;7.37;;;;;;;6.52;100.00;100880.00;5052825;28;20298;-79
2022/11/12 07:38:52;;;;;;;26.73;9.93;;;;;;;6.52;100.00;100880.88;5055162;28;20200;-80
2022/11/12 07:41:21;;;;;;;40.00;12.60;;;;;;;6.54;100.00;100883.47;5054893;28;20258;-79
2022/11/12 07:43:53;;;;;;;44.53;11.10;;;;;;;6.53;100.00;100890.50;5051787;28;20196;-79
2022/11/12 07:46:25;;;;;;;23.87;8.77;;;;;;;6.61;100.00;100887.72;5053859;28;20197;-80
2022/11/12 07:48:55;;;;;;;47.37;15.03;;;;;;;6.52;100.00;100888.78;5054554;28;20644;-79
2022/11/12 07:51:25;;;;;;;33.77;12.93;;;;;;;6.51;100.00;100887.03;5057133;28;20228;-79
2022/11/12 07:53:55;;;;;;;68.87;16.37;;;;;;;6.54;100.00;100886.13;5056957;28;20232;-79
2022/11/12 07:56:27;;;;;;;51.80;15.30;;;;;;;6.60;100.00;100883.38;5037257;28;20318;-79
2022/11/12 07:58:58;;;;;;;28.77;9.53;;;;;;;6.60;100.00;100888.63;5050908;28;20189;-79
2022/11/12 08:01:30;;;;;;;48.17;10.27;;;;;;;6.70;100.00;100887.56;5054597;28;20201;-79
2022/11/12 08:03:59;;;;;;;24.50;8.70;;;;;;;6.72;100.00;100882.25;5054452;28;20193;-79
2022/11/12 08:06:29;;;;;;;83.03;11.93;;;;;;;6.68;100.00;100884.09;5053510;28;20248;-79
2022/11/12 08:09:09;;;;;;;51.37;10.27;;;;;;;6.73;100.00;100889.25;5054651;28;20185;-79
2022/11/12 08:11:38;;;;;;;74.03;11.47;;;;;;;6.75;100.00;100885.66;5052931;28;20205;-79
2022/11/12 08:14:08;;;;;;;69.70;11.17;;;;;;;6.75;100.00;100879.53;5055686;28;20201;-79
2022/11/12 08:16:38;;;;;;;55.10;9.73;;;;;;;6.72;100.00;100882.25;5054504;28;20714;-79
2022/11/12 08:19:06;;;;;;;86.07;11.53;;;;;;;6.70;100.00;100884.06;5054138;28;20205;-80
2022/11/12 08:21:35;;;;;;;34.47;10.00;;;;;;;6.74;100.00;100880.44;5053913;28;20266;-79
2022/11/12 08:24:04;;;;;;;38.43;9.40;;;;;;;6.86;100.00;100883.72;5051666;28;20362;-79
2022/11/12 08:26:33;;;;;;;41.33;10.53;;;;;;;6.73;100.00;100871.69;5054101;28;20201;-79
2022/11/12 08:29:01;;;;;;;76.73;11.80;;;;;;;6.87;100.00;100881.94;5051822;28;20636;-79
2022/11/12 08:31:37;;;;;;;76.63;13.00;;;;;;;6.79;100.00;100878.59;5050135;28;20201;-79
2022/11/12 08:34:11;;;;;;;87.57;12.27;;;;;;;6.84;100.00;100882.00;5051946;28;20189;-79
2022/11/12 08:36:47;;;;;;;80.43;14.07;;;;;;;6.97;100.00;100879.97;5050734;28;20326;-79
2022/11/12 08:39:16;;;;;;;53.83;13.13;;;;;;;7.09;100.00;100877.06;5048435;28;20243;-80
2022/11/12 08:41:44;;;;;;;67.67;13.90;;;;;;;6.99;100.00;100873.78;5047547;28;20236;-80
2022/11/12 08:44:12;;;;;;;37.37;11.33;;;;;;;7.08;100.00;100868.31;5042080;28;20209;-80
2022/11/12 08:46:42;;;;;;;36.93;11.30;;;;;;;7.08;100.00;100865.66;5008616;28;20210;-80
2022/11/12 08:49:11;;;;;;;52.33;12.40;;;;;;;7.07;100.00;100865.69;5016585;28;20240;-79
2022/11/12 08:51:39;;;;;;;20.87;10.10;;;;;;;7.30;100.00;100863.41;5031605;28;20190;-80
2022/11/12 08:54:07;;;;;;;39.33;11.80;;;;;;;7.20;100.00;100855.75;5031601;28;20193;-80
2022/11/12 08:56:36;;;;;;;41.40;11.40;;;;;;;7.09;100.00;100856.00;5033652;28;20253;-80
2022/11/12 08:59:04;;;;;;;48.60;14.53;;;;;;;7.25;100.00;100854.75;5022167;28;20228;-80
2022/11/12 09:01:34;;;;;;;26.90;10.70;;;;;;;7.34;100.00;100856.31;5028501;28;20210;-80
2022/11/12 09:04:06;;;;;;;19.63;9.73;;;;;;;7.43;100.00;100851.69;5032662;28;20204;-80
2022/11/12 09:06:34;;;;;;;29.57;9.57;;;;;;;7.42;100.00;100865.75;5048630;28;20254;-80
2022/11/12 09:09:03;;;;;;;19.83;10.80;;;;;;;7.23;100.00;100858.31;5053306;28;20197;-80
2022/11/12 09:11:31;;;;;;;38.50;11.07;;;;;;;7.29;100.00;100853.75;5053375;28;20193;-80
2022/11/12 09:13:59;;;;;;;23.00;12.10;;;;;;;7.40;100.00;100858.78;5052039;28;20209;-80
2022/11/12 09:16:28;;;;;;;18.93;12.20;;;;;;;7.56;100.00;100854.88;5047938;28;20193;-80
2022/11/12 09:18:57;;;;;;;17.70;11.17;;;;;;;7.70;100.00;100858.03;5049282;28;20189;-80
2022/11/12 09:21:27;;;;;;;19.43;11.63;;;;;;;7.79;100.00;100858.72;5019028;28;20251;-80
2022/11/12 09:23:56;;;;;;;18.87;12.10;;;;;;;7.71;100.00;100864.19;5050427;28;20193;-80
2022/11/12 09:26:29;;;;;;;26.17;12.43;;;;;;;7.83;100.00;100860.38;5053326;28;20239;-80
2022/11/12 09:29:05;;;;;;;19.30;11.97;;;;;;;7.97;100.00;100855.59;5046843;28;20209;-80
2022/11/12 09:31:34;;;;;;;18.30;11.73;;;;;;;8.01;100.00;100852.88;5053735;28;20232;-80
2022/11/12 09:34:03;;;;;;;23.77;11.50;;;;;;;8.09;100.00;100854.41;5049254;28;20208;-80
2022/11/12 09:36:33;;;;;;;16.10;11.57;;;;;;;8.15;100.00;100863.03;5052705;28;20197;-80
2022/11/12 09:39:07;;;;;;;24.10;11.60;;;;;;;8.10;100.00;100864.94;5050982;28;20189;-80
2022/11/12 09:41:39;;;;;;;17.23;11.30;;;;;;;8.19;100.00;100862.03;5011240;28;20218;-80
2022/11/12 09:44:11;;;;;;;13.73;10.40;;;;;;;8.31;100.00;100860.88;5006128;28;20408;-80
2022/11/12 09:46:45;;;;;;;13.53;10.47;;;;;;;8.25;100.00;100850.47;5008930;28;20284;-80
2022/11/12 09:49:17;;;;;;;19.27;10.57;;;;;;;8.34;100.00;100855.50;5011081;28;20241;-80
2022/11/12 09:51:52;;;;;;;15.67;10.50;;;;;;;8.28;100.00;100847.72;5008717;28;20273;-80
2022/11/12 09:54:25;;;;;;;14.73;10.50;;;;;;;8.27;100.00;100844.22;5009447;28;20653;-80
2022/11/12 09:56:55;;;;;;;16.13;10.93;;;;;;;8.17;100.00;100845.38;5006459;28;20255;-79
2022/11/12 09:59:31;;;;;;;17.43;11.73;;;;;;;8.32;100.00;100844.13;5022693;28;20238;-80
2022/11/12 10:02:06;;;;;;;17.07;11.30;;;;;;;8.43;100.00;100846.50;5053970;28;20706;-79
2022/11/12 10:04:49;;;;;;;16.20;11.43;;;;;;;8.41;100.00;100840.41;5052491;28;20211;-80
2022/11/12 10:07:32;;;;;;;16.93;10.43;;;;;;;8.44;100.00;100840.28;5052907;28;20197;-80
2022/11/12 10:10:09;;;;;;;22.17;12.00;;;;;;;8.34;100.00;100837.00;5058601;28;20196;-80
2022/11/12 10:12:50;;;;;;;18.17;11.97;;;;;;;8.44;100.00;100830.59;5056838;28;20192;-80
2022/11/12 10:18:39;;;;;;;18.87;11.20;;;;;;;8.32;100.00;100834.44;5056565;28;20278;-79
2022/11/12 10:21:15;;;;;;;16.83;11.13;;;;;;;8.50;100.00;100826.94;5056133;28;20197;-80
2022/11/12 10:23:47;;;;;;;19.63;10.80;;;;;;;8.51;100.00;100826.88;5055414;28;20207;-80
2022/11/12 10:26:18;;;;;;;33.33;12.33;;;;;;;8.50;100.00;100825.16;5056932;28;20208;-80
2022/11/12 10:28:50;;;;;;;16.53;11.13;;;;;;;8.54;100.00;100826.78;5011171;28;20199;-80
2022/11/12 10:31:20;;;;;;;21.37;11.60;;;;;;;8.66;100.00;100829.97;5011762;28;20203;-80
2022/11/12 10:33:48;;;;;;;14.60;11.03;;;;;;;8.78;100.00;100824.31;4964184;28;20197;-80
2022/11/12 10:36:30;;;;;;;15.63;11.60;;;;;;;8.87;100.00;100816.97;5010092;28;20198;-80
2022/11/12 10:39:03;;;;;;;15.63;11.80;;;;;;;8.85;100.00;100815.31;5016673;28;20280;-80
2022/11/12 10:41:33;;;;;;;20.17;13.27;;;;;;;8.72;100.00;100812.19;5013832;28;20640;-79
2022/11/12 10:44:04;;;;;;;16.20;11.97;;;;;;;8.48;100.00;100815.53;5014222;28;20194;-80
2022/11/12 10:46:35;;;;;;;20.27;12.40;;;;;;;8.30;100.00;100812.50;5029593;28;20197;-79
2022/11/12 10:49:06;;;;;;;16.10;11.67;;;;;;;8.63;100.00;100815.09;5056996;28;20224;-79
2022/11/12 10:51:38;;;;;;;12.00;10.10;;;;;;;8.75;100.00;100811.22;5022449;28;20189;-80
2022/11/12 10:54:31;;;;;;;15.27;11.10;;;;;;;8.99;100.00;100806.97;5054234;28;20238;-80
2022/11/12 10:57:19;;;;;;;29.47;22.97;;;;;;;8.90;100.00;100794.91;5054803;28;20204;-80
2022/11/12 11:00:15;;;;;;;15.40;11.17;;;;;;;9.10;100.00;100796.94;5053883;28;20239;-80
2022/11/12 11:02:51;;;;;;;15.00;11.57;;;;;;;9.46;100.00;100795.75;5066682;28;20177;-79
2022/11/12 11:05:30;;;;;;;14.30;11.90;;;;;;;9.57;100.00;100781.28;5070695;28;20227;-80
2022/11/12 11:08:00;;;;;;;17.47;13.73;;;;;;;9.61;100.00;100780.25;5056109;28;20232;-80
2022/11/12 11:10:33;;;;;;;11.63;10.33;;;;;;;10.10;100.00;100775.91;5053709;28;20223;-80
2022/11/12 11:13:19;;;;;;;12.03;10.17;;;;;;;10.08;100.00;100768.03;5055602;28;20201;-80
2022/11/12 11:15:59;;;;;;;11.77;10.20;;;;;;;10.46;100.00;100757.84;5054502;28;20196;-80
2022/11/12 11:18:29;;;;;;;13.63;10.13;;;;;;;10.73;100.00;100750.63;5050860;28;20240;-80
2022/11/12 11:21:06;;;;;;;10.13;8.63;;;;;;;11.06;100.00;100753.69;5056679;28;20684;-80
2022/11/12 11:23:42;;;;;;;12.80;9.37;;;;;;;11.30;100.00;100742.09;5050447;28;20644;-80
2022/11/12 11:26:29;;;;;;;11.40;9.43;;;;;;;11.51;100.00;100728.88;5055416;28;20644;-80
2022/11/12 11:29:04;;;;;;;9.87;8.60;;;;;;;11.59;100.00;100727.59;5056530;28;20246;-80
2022/11/12 11:31:44;;;;;;;11.37;9.37;;;;;;;11.81;100.00;100711.63;5055379;28;20236;-80
2022/11/12 11:34:26;;;;;;;9.73;8.73;;;;;;;11.92;100.00;100724.44;5055051;28;20197;-79
2022/11/12 11:37:10;;;;;;;9.37;8.37;;;;;;;11.79;100.00;100712.59;4965581;28;20205;-80
2022/11/12 11:39:48;;;;;;;12.17;8.83;;;;;;;12.07;100.00;100702.50;5009751;28;20210;-80
2022/11/12 11:42:32;;;;;;;10.47;9.23;;;;;;;12.10;100.00;100688.22;5013174;28;20198;-80
2022/11/12 11:45:15;;;;;;;10.70;9.60;;;;;;;12.07;100.00;100697.19;5006318;28;20198;-80
2022/11/12 11:47:53;;;;;;;11.20;9.03;;;;;;;11.91;100.00;100686.41;5009496;28;20256;-80
2022/11/12 11:50:31;;;;;;;14.10;9.13;;;;;;;12.09;100.00;100687.38;4954192;29;20201;-80
2022/11/12 11:53:13;;;;;;;10.13;9.00;;;;;;;12.06;100.00;100679.50;4954557;29;20221;-80
2022/11/12 11:55:53;;;;;;;10.63;9.53;;;;;;;12.17;100.00;100679.06;4981434;28;20202;-80
2022/11/12 11:58:52;;;;;;;11.33;9.13;;;;;;;11.99;100.00;100680.75;4993529;28;20218;-80
2022/11/12 12:01:29;;;;;;;11.43;9.63;;;;;;;12.27;100.00;100678.53;4990764;28;20230;-79